sensor_id;sensor_type;location;lat;lon;timestamp;P1;durP1;ratioP1;P2;durP2;ratioP2
19191;SDS011;9728;48.194;16.346;2022-12-11T00:02:45;10.17;;;5.67;;
19191;SDS011;9728;48.194;16.346;2022-12-11T00:07:48;10.37;;;5.50;;
19191;SDS011;9728;48.194;16.346;2022-12-11T00:12:52;9.40;;;5.03;;
19191;SDS011;9728;48.194;16.346;2022-12-11T00:17:56;11.93;;;5.70;;
19191;SDS011;9728;48.194;16.346;2022-12-11T00:23:00;8.00;;;4.20;;
19191;SDS011;9728;48.194;16.346;2022-12-11T00:28:06;8.27;;;4.50;;
19191;SDS011;9728;48.194;16.346;2022-12-11T00:33:11;8.97;;;5.17;;
19191;SDS011;9728;48.194;16.346;2022-12-11T00:38:16;10.77;;;5.00;;
19191;SDS011;9728;48.194;16.346;2022-12-11T00:43:22;10.43;;;5.67;;
19191;SDS011;9728;48.194;16.346;2022-12-11T00:48:27;9.10;;;5.07;;
19191;SDS011;9728;48.194;16.346;2022-12-11T00:53:30;8.33;;;4.30;;
19191;SDS011;9728;48.194;16.346;2022-12-11T00:58:34;9.43;;;5.77;;
19191;SDS011;9728;48.194;16.346;2022-12-11T01:03:39;9.57;;;5.10;;
19191;SDS011;9728;48.194;16.346;2022-12-11T01:08:42;9.57;;;5.53;;
19191;SDS011;9728;48.194;16.346;2022-12-11T01:13:46;11.33;;;5.87;;
19191;SDS011;9728;48.194;16.346;2022-12-11T01:18:51;9.80;;;4.87;;
19191;SDS011;9728;48.194;16.346;2022-12-11T01:23:54;10.23;;;5.10;;
19191;SDS011;9728;48.194;16.346;2022-12-11T01:28:58;8.93;;;4.70;;
19191;SDS011;9728;48.194;16.346;2022-12-11T01:34:03;9.67;;;5.03;;
19191;SDS011;9728;48.194;16.346;2022-12-11T01:39:06;10.80;;;4.70;;
19191;SDS011;9728;48.194;16.346;2022-12-11T01:49:48;10.13;;;5.70;;
19191;SDS011;9728;48.194;16.346;2022-12-11T01:54:51;10.10;;;5.00;;
19191;SDS011;9728;48.194;16.346;2022-12-11T01:59:55;9.53;;;5.10;;
19191;SDS011;9728;48.194;16.346;2022-12-11T02:04:59;9.93;;;5.53;;
19191;SDS011;9728;48.194;16.346;2022-12-11T02:10:04;7.37;;;4.70;;
19191;SDS011;9728;48.194;16.346;2022-12-11T02:15:11;9.07;;;4.83;;
19191;SDS011;9728;48.194;16.346;2022-12-11T02:20:21;10.23;;;5.00;;
19191;SDS011;9728;48.194;16.346;2022-12-11T02:25:30;11.67;;;5.30;;
19191;SDS011;9728;48.194;16.346;2022-12-11T02:30:39;9.33;;;4.77;;
19191;SDS011;9728;48.194;16.346;2022-12-11T02:35:46;9.07;;;5.10;;
19191;SDS011;9728;48.194;16.346;2022-12-11T02:40:51;7.07;;;4.17;;
19191;SDS011;9728;48.194;16.346;2022-12-11T02:45:59;8.70;;;4.80;;
19191;SDS011;9728;48.194;16.346;2022-12-11T02:51:05;9.40;;;5.23;;
19191;SDS011;9728;48.194;16.346;2022-12-11T02:56:11;9.03;;;4.97;;
19191;SDS011;9728;48.194;16.346;2022-12-11T03:01:19;10.23;;;4.87;;
19191;SDS011;9728;48.194;16.346;2022-12-11T03:06:24;8.67;;;4.10;;
19191;SDS011;9728;48.194;16.346;2022-12-11T03:11:33;7.40;;;3.70;;
19191;SDS011;9728;48.194;16.346;2022-12-11T03:16:38;6.70;;;4.10;;
19191;SDS011;9728;48.194;16.346;2022-12-11T03:21:48;7.43;;;3.70;;
19191;SDS011;9728;48.194;16.346;2022-12-11T03:26:55;8.83;;;4.57;;
19191;SDS011;9728;48.194;16.346;2022-12-11T03:32:10;8.30;;;4.40;;
19191;SDS011;9728;48.194;16.346;2022-12-11T03:37:20;7.67;;;4.03;;
19191;SDS011;9728;48.194;16.346;2022-12-11T03:42:26;7.60;;;4.13;;
19191;SDS011;9728;48.194;16.346;2022-12-11T03:47:32;7.30;;;3.93;;
19191;SDS011;9728;48.194;16.346;2022-12-11T03:52:36;8.17;;;4.53;;
19191;SDS011;9728;48.194;16.346;2022-12-11T03:57:46;10.37;;;4.90;;
19191;SDS011;9728;48.194;16.346;2022-12-11T04:02:51;8.33;;;4.07;;
19191;SDS011;9728;48.194;16.346;2022-12-11T04:08:14;8.93;;;4.50;;
19191;SDS011;9728;48.194;16.346;2022-12-11T04:13:18;7.40;;;3.97;;
19191;SDS011;9728;48.194;16.346;2022-12-11T04:18:23;6.47;;;3.53;;
19191;SDS011;9728;48.194;16.346;2022-12-11T04:23:43;7.20;;;4.00;;
19191;SDS011;9728;48.194;16.346;2022-12-11T04:29:04;9.90;;;5.00;;
19191;SDS011;9728;48.194;16.346;2022-12-11T04:34:09;8.97;;;4.70;;
19191;SDS011;9728;48.194;16.346;2022-12-11T04:39:12;10.37;;;4.93;;
19191;SDS011;9728;48.194;16.346;2022-12-11T04:44:15;8.23;;;4.30;;
19191;SDS011;9728;48.194;16.346;2022-12-11T04:49:20;9.23;;;4.63;;
19191;SDS011;9728;48.194;16.346;2022-12-11T04:54:23;6.83;;;4.00;;
19191;SDS011;9728;48.194;16.346;2022-12-11T04:59:26;6.80;;;4.07;;
19191;SDS011;9728;48.194;16.346;2022-12-11T05:04:32;7.87;;;4.43;;
19191;SDS011;9728;48.194;16.346;2022-12-11T05:09:36;6.97;;;4.20;;
19191;SDS011;9728;48.194;16.346;2022-12-11T05:14:39;7.23;;;3.63;;
19191;SDS011;9728;48.194;16.346;2022-12-11T05:19:43;6.87;;;4.10;;
19191;SDS011;9728;48.194;16.346;2022-12-11T05:24:49;8.27;;;3.90;;
19191;SDS011;9728;48.194;16.346;2022-12-11T05:29:52;6.63;;;3.87;;
19191;SDS011;9728;48.194;16.346;2022-12-11T05:35:01;6.47;;;4.40;;
19191;SDS011;9728;48.194;16.346;2022-12-11T05:40:05;7.17;;;4.07;;
19191;SDS011;9728;48.194;16.346;2022-12-11T05:45:09;7.80;;;4.80;;
19191;SDS011;9728;48.194;16.346;2022-12-11T05:50:14;8.73;;;4.73;;
19191;SDS011;9728;48.194;16.346;2022-12-11T05:55:18;9.57;;;4.70;;
19191;SDS011;9728;48.194;16.346;2022-12-11T06:00:21;7.03;;;3.93;;
19191;SDS011;9728;48.194;16.346;2022-12-11T06:05:26;6.70;;;4.13;;
19191;SDS011;9728;48.194;16.346;2022-12-11T06:10:29;8.07;;;4.20;;
19191;SDS011;9728;48.194;16.346;2022-12-11T06:15:33;6.97;;;4.13;;
19191;SDS011;9728;48.194;16.346;2022-12-11T06:20:38;7.37;;;4.27;;
19191;SDS011;9728;48.194;16.346;2022-12-11T06:25:41;6.53;;;3.70;;
19191;SDS011;9728;48.194;16.346;2022-12-11T06:30:44;5.60;;;3.67;;
19191;SDS011;9728;48.194;16.346;2022-12-11T06:35:49;6.30;;;3.67;;
19191;SDS011;9728;48.194;16.346;2022-12-11T06:40:53;5.10;;;3.50;;
19191;SDS011;9728;48.194;16.346;2022-12-11T06:45:57;5.60;;;3.50;;
19191;SDS011;9728;48.194;16.346;2022-12-11T06:51:06;6.17;;;3.40;;
19191;SDS011;9728;48.194;16.346;2022-12-11T06:56:11;6.93;;;4.30;;
19191;SDS011;9728;48.194;16.346;2022-12-11T07:01:17;5.13;;;3.13;;
19191;SDS011;9728;48.194;16.346;2022-12-11T07:06:22;7.20;;;3.77;;
19191;SDS011;9728;48.194;16.346;2022-12-11T07:11:26;6.07;;;3.47;;
19191;SDS011;9728;48.194;16.346;2022-12-11T07:16:30;5.77;;;3.83;;
19191;SDS011;9728;48.194;16.346;2022-12-11T07:21:34;6.93;;;3.50;;
19191;SDS011;9728;48.194;16.346;2022-12-11T07:26:38;6.90;;;3.60;;
19191;SDS011;9728;48.194;16.346;2022-12-11T07:31:41;5.20;;;3.30;;
19191;SDS011;9728;48.194;16.346;2022-12-11T07:36:46;7.10;;;3.63;;
19191;SDS011;9728;48.194;16.346;2022-12-11T07:41:49;5.93;;;3.50;;
19191;SDS011;9728;48.194;16.346;2022-12-11T07:46:52;6.37;;;3.70;;
19191;SDS011;9728;48.194;16.346;2022-12-11T07:51:58;5.40;;;3.50;;
19191;SDS011;9728;48.194;16.346;2022-12-11T07:57:01;6.13;;;3.83;;
19191;SDS011;9728;48.194;16.346;2022-12-11T08:02:08;6.43;;;3.67;;
19191;SDS011;9728;48.194;16.346;2022-12-11T08:07:13;5.80;;;3.97;;
19191;SDS011;9728;48.194;16.346;2022-12-11T08:12:17;6.67;;;3.43;;
19191;SDS011;9728;48.194;16.346;2022-12-11T08:17:20;5.77;;;3.40;;
19191;SDS011;9728;48.194;16.346;2022-12-11T08:22:31;4.73;;;3.37;;
19191;SDS011;9728;48.194;16.346;2022-12-11T08:27:36;5.50;;;3.53;;
19191;SDS011;9728;48.194;16.346;2022-12-11T08:32:39;4.90;;;3.20;;
19191;SDS011;9728;48.194;16.346;2022-12-11T08:37:44;4.77;;;2.87;;
19191;SDS011;9728;48.194;16.346;2022-12-11T08:42:47;4.33;;;2.83;;
19191;SDS011;9728;48.194;16.346;2022-12-11T08:47:52;3.73;;;2.67;;
19191;SDS011;9728;48.194;16.346;2022-12-11T08:52:56;5.57;;;2.97;;
19191;SDS011;9728;48.194;16.346;2022-12-11T08:58:00;4.73;;;3.00;;
19191;SDS011;9728;48.194;16.346;2022-12-11T09:03:04;4.00;;;2.67;;
19191;SDS011;9728;48.194;16.346;2022-12-11T09:08:14;5.37;;;3.47;;
19191;SDS011;9728;48.194;16.346;2022-12-11T09:13:18;4.90;;;2.70;;
19191;SDS011;9728;48.194;16.346;2022-12-11T09:18:21;4.70;;;2.63;;
19191;SDS011;9728;48.194;16.346;2022-12-11T09:23:26;4.47;;;2.83;;
19191;SDS011;9728;48.194;16.346;2022-12-11T09:28:30;5.20;;;3.10;;
19191;SDS011;9728;48.194;16.346;2022-12-11T09:33:33;4.33;;;2.83;;
19191;SDS011;9728;48.194;16.346;2022-12-11T09:38:38;4.90;;;2.90;;
19191;SDS011;9728;48.194;16.346;2022-12-11T09:43:45;5.37;;;3.07;;
19191;SDS011;9728;48.194;16.346;2022-12-11T09:48:51;4.30;;;2.53;;
19191;SDS011;9728;48.194;16.346;2022-12-11T09:53:58;4.20;;;2.80;;
19191;SDS011;9728;48.194;16.346;2022-12-11T09:59:05;3.23;;;2.73;;
19191;SDS011;9728;48.194;16.346;2022-12-11T10:04:29;4.43;;;3.00;;
19191;SDS011;9728;48.194;16.346;2022-12-11T10:09:48;4.07;;;2.67;;
19191;SDS011;9728;48.194;16.346;2022-12-11T10:15:02;4.43;;;2.10;;
19191;SDS011;9728;48.194;16.346;2022-12-11T10:20:19;4.97;;;2.90;;
19191;SDS011;9728;48.194;16.346;2022-12-11T10:25:28;3.77;;;2.00;;
19191;SDS011;9728;48.194;16.346;2022-12-11T10:30:35;2.73;;;1.97;;
19191;SDS011;9728;48.194;16.346;2022-12-11T10:35:41;3.23;;;2.30;;
19191;SDS011;9728;48.194;16.346;2022-12-11T10:40:52;2.83;;;2.33;;
19191;SDS011;9728;48.194;16.346;2022-12-11T10:45:57;3.80;;;2.30;;
19191;SDS011;9728;48.194;16.346;2022-12-11T10:51:02;4.67;;;2.77;;
19191;SDS011;9728;48.194;16.346;2022-12-11T10:56:08;2.93;;;2.10;;
19191;SDS011;9728;48.194;16.346;2022-12-11T11:01:14;3.50;;;2.10;;
19191;SDS011;9728;48.194;16.346;2022-12-11T11:06:20;5.17;;;3.07;;
19191;SDS011;9728;48.194;16.346;2022-12-11T11:11:27;3.43;;;2.47;;
19191;SDS011;9728;48.194;16.346;2022-12-11T11:16:35;3.20;;;2.53;;
19191;SDS011;9728;48.194;16.346;2022-12-11T11:21:45;4.23;;;2.90;;
19191;SDS011;9728;48.194;16.346;2022-12-11T11:26:52;3.27;;;2.57;;
19191;SDS011;9728;48.194;16.346;2022-12-11T11:32:14;3.93;;;2.43;;
19191;SDS011;9728;48.194;16.346;2022-12-11T11:37:22;3.93;;;2.50;;
19191;SDS011;9728;48.194;16.346;2022-12-11T11:42:36;3.53;;;2.13;;
19191;SDS011;9728;48.194;16.346;2022-12-11T11:47:49;4.27;;;2.57;;
19191;SDS011;9728;48.194;16.346;2022-12-11T11:53:01;3.87;;;2.23;;
19191;SDS011;9728;48.194;16.346;2022-12-11T11:58:11;3.90;;;2.27;;
19191;SDS011;9728;48.194;16.346;2022-12-11T12:03:17;3.23;;;2.20;;
19191;SDS011;9728;48.194;16.346;2022-12-11T12:08:25;4.40;;;2.10;;
19191;SDS011;9728;48.194;16.346;2022-12-11T12:13:46;3.00;;;2.10;;
19191;SDS011;9728;48.194;16.346;2022-12-11T12:18:57;3.37;;;2.27;;
19191;SDS011;9728;48.194;16.346;2022-12-11T12:24:07;3.57;;;2.30;;
19191;SDS011;9728;48.194;16.346;2022-12-11T12:29:25;2.80;;;2.03;;
19191;SDS011;9728;48.194;16.346;2022-12-11T12:34:44;4.10;;;2.30;;
19191;SDS011;9728;48.194;16.346;2022-12-11T12:39:59;4.07;;;2.57;;
19191;SDS011;9728;48.194;16.346;2022-12-11T12:45:17;2.93;;;2.07;;
19191;SDS011;9728;48.194;16.346;2022-12-11T12:50:28;3.77;;;2.30;;
19191;SDS011;9728;48.194;16.346;2022-12-11T12:55:39;2.67;;;2.07;;
19191;SDS011;9728;48.194;16.346;2022-12-11T13:00:45;3.20;;;2.10;;
19191;SDS011;9728;48.194;16.346;2022-12-11T13:05:54;3.70;;;2.23;;
19191;SDS011;9728;48.194;16.346;2022-12-11T13:11:00;3.57;;;2.17;;
19191;SDS011;9728;48.194;16.346;2022-12-11T13:21:29;3.97;;;2.33;;
19191;SDS011;9728;48.194;16.346;2022-12-11T13:26:34;3.87;;;2.30;;
19191;SDS011;9728;48.194;16.346;2022-12-11T13:31:39;3.93;;;2.43;;
19191;SDS011;9728;48.194;16.346;2022-12-11T13:36:57;3.83;;;2.50;;
19191;SDS011;9728;48.194;16.346;2022-12-11T13:42:03;3.07;;;1.93;;
19191;SDS011;9728;48.194;16.346;2022-12-11T13:47:17;3.10;;;2.20;;
19191;SDS011;9728;48.194;16.346;2022-12-11T13:52:22;3.50;;;2.30;;
19191;SDS011;9728;48.194;16.346;2022-12-11T13:57:28;4.10;;;2.40;;
19191;SDS011;9728;48.194;16.346;2022-12-11T14:02:34;4.07;;;2.73;;
19191;SDS011;9728;48.194;16.346;2022-12-11T14:07:41;3.40;;;2.37;;
19191;SDS011;9728;48.194;16.346;2022-12-11T14:12:50;4.37;;;2.53;;
19191;SDS011;9728;48.194;16.346;2022-12-11T14:18:00;3.77;;;2.47;;
19191;SDS011;9728;48.194;16.346;2022-12-11T14:23:04;2.67;;;2.33;;
19191;SDS011;9728;48.194;16.346;2022-12-11T14:28:12;3.87;;;2.63;;
19191;SDS011;9728;48.194;16.346;2022-12-11T14:33:20;3.60;;;2.43;;
19191;SDS011;9728;48.194;16.346;2022-12-11T14:38:27;4.73;;;2.80;;
19191;SDS011;9728;48.194;16.346;2022-12-11T14:43:36;5.87;;;3.40;;
19191;SDS011;9728;48.194;16.346;2022-12-11T14:48:47;3.27;;;2.40;;
19191;SDS011;9728;48.194;16.346;2022-12-11T14:54:01;4.63;;;2.73;;
19191;SDS011;9728;48.194;16.346;2022-12-11T14:59:06;4.27;;;2.83;;
19191;SDS011;9728;48.194;16.346;2022-12-11T15:04:21;3.93;;;2.27;;
19191;SDS011;9728;48.194;16.346;2022-12-11T15:09:28;4.90;;;3.10;;
19191;SDS011;9728;48.194;16.346;2022-12-11T15:14:40;3.73;;;2.40;;
19191;SDS011;9728;48.194;16.346;2022-12-11T15:19:49;4.07;;;2.60;;
19191;SDS011;9728;48.194;16.346;2022-12-11T15:24:56;4.50;;;3.00;;
19191;SDS011;9728;48.194;16.346;2022-12-11T15:30:01;3.93;;;2.80;;
19191;SDS011;9728;48.194;16.346;2022-12-11T15:35:21;3.80;;;2.70;;
19191;SDS011;9728;48.194;16.346;2022-12-11T15:40:26;2.57;;;2.27;;
19191;SDS011;9728;48.194;16.346;2022-12-11T15:45:29;3.60;;;2.63;;
19191;SDS011;9728;48.194;16.346;2022-12-11T15:50:35;3.13;;;2.10;;
19191;SDS011;9728;48.194;16.346;2022-12-11T15:55:39;4.37;;;2.70;;
19191;SDS011;9728;48.194;16.346;2022-12-11T16:00:42;3.77;;;2.63;;
19191;SDS011;9728;48.194;16.346;2022-12-11T16:05:48;4.57;;;2.83;;
19191;SDS011;9728;48.194;16.346;2022-12-11T16:10:53;5.60;;;2.97;;
19191;SDS011;9728;48.194;16.346;2022-12-11T16:15:57;4.73;;;2.87;;
19191;SDS011;9728;48.194;16.346;2022-12-11T16:21:04;4.53;;;3.13;;
19191;SDS011;9728;48.194;16.346;2022-12-11T16:26:08;3.50;;;2.50;;
19191;SDS011;9728;48.194;16.346;2022-12-11T16:31:13;4.80;;;3.07;;
19191;SDS011;9728;48.194;16.346;2022-12-11T16:36:19;4.60;;;2.87;;
19191;SDS011;9728;48.194;16.346;2022-12-11T16:41:23;3.20;;;2.57;;
19191;SDS011;9728;48.194;16.346;2022-12-11T16:46:29;5.60;;;3.43;;
19191;SDS011;9728;48.194;16.346;2022-12-11T16:51:35;3.13;;;2.40;;
19191;SDS011;9728;48.194;16.346;2022-12-11T16:56:39;4.30;;;2.57;;
19191;SDS011;9728;48.194;16.346;2022-12-11T17:01:44;6.10;;;3.57;;
19191;SDS011;9728;48.194;16.346;2022-12-11T17:06:50;3.73;;;2.60;;
19191;SDS011;9728;48.194;16.346;2022-12-11T17:11:54;4.07;;;3.00;;
19191;SDS011;9728;48.194;16.346;2022-12-11T17:16:58;4.37;;;3.00;;
19191;SDS011;9728;48.194;16.346;2022-12-11T17:22:05;5.63;;;3.17;;
19191;SDS011;9728;48.194;16.346;2022-12-11T17:27:09;6.23;;;3.27;;
19191;SDS011;9728;48.194;16.346;2022-12-11T17:32:14;4.90;;;2.97;;
19191;SDS011;9728;48.194;16.346;2022-12-11T17:37:21;5.17;;;3.30;;
19191;SDS011;9728;48.194;16.346;2022-12-11T17:42:25;6.03;;;3.70;;
19191;SDS011;9728;48.194;16.346;2022-12-11T17:47:31;5.23;;;3.40;;
19191;SDS011;9728;48.194;16.346;2022-12-11T17:52:41;5.83;;;3.73;;
19191;SDS011;9728;48.194;16.346;2022-12-11T17:57:46;6.33;;;3.97;;
19191;SDS011;9728;48.194;16.346;2022-12-11T18:02:50;5.97;;;4.20;;
19191;SDS011;9728;48.194;16.346;2022-12-11T18:07:55;8.93;;;5.00;;
19191;SDS011;9728;48.194;16.346;2022-12-11T18:13:01;5.77;;;3.53;;
19191;SDS011;9728;48.194;16.346;2022-12-11T18:18:07;7.00;;;4.17;;
19191;SDS011;9728;48.194;16.346;2022-12-11T18:23:14;6.63;;;4.13;;
19191;SDS011;9728;48.194;16.346;2022-12-11T18:28:19;5.97;;;3.77;;
19191;SDS011;9728;48.194;16.346;2022-12-11T18:33:24;7.97;;;4.43;;
19191;SDS011;9728;48.194;16.346;2022-12-11T18:38:33;7.40;;;4.30;;
19191;SDS011;9728;48.194;16.346;2022-12-11T18:43:39;6.20;;;4.10;;
19191;SDS011;9728;48.194;16.346;2022-12-11T18:48:45;7.53;;;4.73;;
19191;SDS011;9728;48.194;16.346;2022-12-11T18:53:51;6.33;;;4.27;;
19191;SDS011;9728;48.194;16.346;2022-12-11T18:58:56;7.53;;;4.87;;
19191;SDS011;9728;48.194;16.346;2022-12-11T19:04:04;8.23;;;4.47;;
19191;SDS011;9728;48.194;16.346;2022-12-11T19:09:13;7.07;;;4.40;;
19191;SDS011;9728;48.194;16.346;2022-12-11T19:14:19;10.03;;;5.03;;
19191;SDS011;9728;48.194;16.346;2022-12-11T19:19:24;10.47;;;5.20;;
19191;SDS011;9728;48.194;16.346;2022-12-11T19:24:30;7.53;;;4.53;;
19191;SDS011;9728;48.194;16.346;2022-12-11T19:29:36;9.70;;;5.40;;
19191;SDS011;9728;48.194;16.346;2022-12-11T19:34:44;8.50;;;5.10;;
19191;SDS011;9728;48.194;16.346;2022-12-11T19:39:50;9.00;;;5.20;;
19191;SDS011;9728;48.194;16.346;2022-12-11T19:44:56;8.07;;;5.37;;
19191;SDS011;9728;48.194;16.346;2022-12-11T19:50:04;8.30;;;5.23;;
19191;SDS011;9728;48.194;16.346;2022-12-11T19:55:14;7.93;;;4.33;;
19191;SDS011;9728;48.194;16.346;2022-12-11T20:00:21;6.63;;;4.40;;
19191;SDS011;9728;48.194;16.346;2022-12-11T20:05:26;7.87;;;4.37;;
19191;SDS011;9728;48.194;16.346;2022-12-11T20:10:32;6.97;;;4.10;;
19191;SDS011;9728;48.194;16.346;2022-12-11T20:15:37;8.63;;;4.83;;
19191;SDS011;9728;48.194;16.346;2022-12-11T20:20:42;6.70;;;4.27;;
19191;SDS011;9728;48.194;16.346;2022-12-11T20:25:49;8.50;;;4.93;;
19191;SDS011;9728;48.194;16.346;2022-12-11T20:31:02;5.63;;;3.53;;
19191;SDS011;9728;48.194;16.346;2022-12-11T20:36:08;8.30;;;5.23;;
19191;SDS011;9728;48.194;16.346;2022-12-11T20:41:16;7.33;;;4.50;;
19191;SDS011;9728;48.194;16.346;2022-12-11T20:46:23;7.33;;;4.43;;
19191;SDS011;9728;48.194;16.346;2022-12-11T20:51:29;8.67;;;4.40;;
19191;SDS011;9728;48.194;16.346;2022-12-11T20:56:34;6.43;;;3.93;;
19191;SDS011;9728;48.194;16.346;2022-12-11T21:01:39;5.87;;;4.50;;
19191;SDS011;9728;48.194;16.346;2022-12-11T21:06:45;6.33;;;4.20;;
19191;SDS011;9728;48.194;16.346;2022-12-11T21:11:57;7.37;;;4.37;;
19191;SDS011;9728;48.194;16.346;2022-12-11T21:17:05;7.87;;;4.40;;
19191;SDS011;9728;48.194;16.346;2022-12-11T21:22:12;7.07;;;4.57;;
19191;SDS011;9728;48.194;16.346;2022-12-11T21:27:17;7.97;;;4.57;;
19191;SDS011;9728;48.194;16.346;2022-12-11T21:32:23;6.57;;;4.10;;
19191;SDS011;9728;48.194;16.346;2022-12-11T21:37:28;7.23;;;4.63;;
19191;SDS011;9728;48.194;16.346;2022-12-11T21:42:33;8.67;;;4.73;;
19191;SDS011;9728;48.194;16.346;2022-12-11T21:47:37;9.07;;;5.60;;
19191;SDS011;9728;48.194;16.346;2022-12-11T21:52:40;7.03;;;4.83;;
19191;SDS011;9728;48.194;16.346;2022-12-11T21:57:45;7.83;;;4.47;;
19191;SDS011;9728;48.194;16.346;2022-12-11T22:02:49;8.67;;;4.90;;
19191;SDS011;9728;48.194;16.346;2022-12-11T22:07:53;8.60;;;5.10;;
19191;SDS011;9728;48.194;16.346;2022-12-11T22:13:00;6.70;;;4.40;;
19191;SDS011;9728;48.194;16.346;2022-12-11T22:18:03;8.37;;;4.97;;
19191;SDS011;9728;48.194;16.346;2022-12-11T22:23:06;8.40;;;4.60;;
19191;SDS011;9728;48.194;16.346;2022-12-11T22:28:11;6.73;;;4.40;;
19191;SDS011;9728;48.194;16.346;2022-12-11T22:33:15;7.67;;;4.53;;
19191;SDS011;9728;48.194;16.346;2022-12-11T22:38:18;7.93;;;4.60;;
19191;SDS011;9728;48.194;16.346;2022-12-11T22:43:23;6.07;;;4.03;;
19191;SDS011;9728;48.194;16.346;2022-12-11T22:48:27;5.57;;;4.00;;
19191;SDS011;9728;48.194;16.346;2022-12-11T22:53:30;7.13;;;5.03;;
19191;SDS011;9728;48.194;16.346;2022-12-11T22:58:35;7.87;;;4.80;;
19191;SDS011;9728;48.194;16.346;2022-12-11T23:03:39;7.60;;;4.73;;
19191;SDS011;9728;48.194;16.346;2022-12-11T23:08:43;6.27;;;3.77;;
19191;SDS011;9728;48.194;16.346;2022-12-11T23:13:49;6.53;;;4.20;;
19191;SDS011;9728;48.194;16.346;2022-12-11T23:18:53;6.80;;;4.17;;
19191;SDS011;9728;48.194;16.346;2022-12-11T23:23:58;6.73;;;4.53;;
19191;SDS011;9728;48.194;16.346;2022-12-11T23:29:03;5.90;;;4.00;;
19191;SDS011;9728;48.194;16.346;2022-12-11T23:34:07;7.00;;;4.53;;
19191;SDS011;9728;48.194;16.346;2022-12-11T23:39:11;7.70;;;4.60;;
19191;SDS011;9728;48.194;16.346;2022-12-11T23:44:16;7.43;;;4.60;;
19191;SDS011;9728;48.194;16.346;2022-12-11T23:49:19;6.63;;;4.37;;
19191;SDS011;9728;48.194;16.346;2022-12-11T23:54:23;7.60;;;4.30;;
19191;SDS011;9728;48.194;16.346;2022-12-11T23:59:27;7.50;;;4.07;;
